sensor_id;sensor_type;location;lat;lon;timestamp;pressure;altitude;pressure_sealevel;temperature;humidity
8575;BME280;4325;42.520;27.448;2023-05-11T00:01:43;101647.28;;;10.44;100.00
8575;BME280;4325;42.520;27.448;2023-05-11T00:04:09;101644.97;;;10.36;100.00
8575;BME280;4325;42.520;27.448;2023-05-11T00:06:36;101648.78;;;10.35;100.00
8575;BME280;4325;42.520;27.448;2023-05-11T00:09:03;101642.25;;;10.36;100.00
8575;BME280;4325;42.520;27.448;2023-05-11T00:11:31;101649.22;;;10.44;100.00
8575;BME280;4325;42.520;27.448;2023-05-11T00:13:59;101649.13;;;10.55;100.00
8575;BME280;4325;42.520;27.448;2023-05-11T00:16:26;101646.03;;;10.69;100.00
8575;BME280;4325;42.520;27.448;2023-05-11T00:18:53;101654.25;;;10.69;100.00
8575;BME280;4325;42.520;27.448;2023-05-11T00:21:20;101657.44;;;10.60;100.00
8575;BME280;4325;42.520;27.448;2023-05-11T00:23:48;101652.53;;;10.63;100.00
8575;BME280;4325;42.520;27.448;2023-05-11T00:26:14;101660.16;;;10.60;100.00
8575;BME280;4325;42.520;27.448;2023-05-11T00:28:41;101660.16;;;10.60;100.00
8575;BME280;4325;42.520;27.448;2023-05-11T00:31:11;101657.06;;;10.74;100.00
8575;BME280;4325;42.520;27.448;2023-05-11T00:33:38;101661.47;;;10.75;100.00
8575;BME280;4325;42.520;27.448;2023-05-11T00:36:05;101656.84;;;10.75;100.00
8575;BME280;4325;42.520;27.448;2023-05-11T00:38:32;101661.97;;;10.72;100.00
8575;BME280;4325;42.520;27.448;2023-05-11T00:41:01;101664.63;;;10.67;100.00
8575;BME280;4325;42.520;27.448;2023-05-11T00:43:28;101665.13;;;10.63;100.00
8575;BME280;4325;42.520;27.448;2023-05-11T00:45:55;101664.13;;;10.70;100.00
8575;BME280;4325;42.520;27.448;2023-05-11T00:48:23;101656.00;;;10.75;100.00
8575;BME280;4325;42.520;27.448;2023-05-11T00:50:50;101663.47;;;10.79;100.00
8575;BME280;4325;42.520;27.448;2023-05-11T00:53:17;101668.03;;;10.74;100.00
8575;BME280;4325;42.520;27.448;2023-05-11T00:55:44;101665.81;;;10.71;100.00
8575;BME280;4325;42.520;27.448;2023-05-11T00:58:11;101659.31;;;10.77;100.00
8575;BME280;4325;42.520;27.448;2023-05-11T01:00:38;101665.53;;;10.89;100.00
8575;BME280;4325;42.520;27.448;2023-05-11T01:03:05;101673.91;;;10.99;100.00
8575;BME280;4325;42.520;27.448;2023-05-11T01:05:41;101672.31;;;11.03;100.00
8575;BME280;4325;42.520;27.448;2023-05-11T01:08:34;101667.09;;;11.01;100.00
8575;BME280;4325;42.520;27.448;2023-05-11T01:11:07;101667.59;;;10.98;100.00
8575;BME280;4325;42.520;27.448;2023-05-11T01:13:38;101667.94;;;11.02;100.00
8575;BME280;4325;42.520;27.448;2023-05-11T01:16:14;101666.13;;;11.12;100.00
8575;BME280;4325;42.520;27.448;2023-05-11T01:18:50;101671.00;;;11.27;100.00
8575;BME280;4325;42.520;27.448;2023-05-11T01:21:19;101664.53;;;11.33;100.00
8575;BME280;4325;42.520;27.448;2023-05-11T01:24:19;101673.38;;;11.40;100.00
8575;BME280;4325;42.520;27.448;2023-05-11T01:27:02;101673.19;;;11.47;100.00
8575;BME280;4325;42.520;27.448;2023-05-11T01:29:49;101676.56;;;11.54;100.00
8575;BME280;4325;42.520;27.448;2023-05-11T01:32:25;101669.44;;;11.53;100.00
8575;BME280;4325;42.520;27.448;2023-05-11T01:34:59;101671.09;;;11.54;100.00
8575;BME280;4325;42.520;27.448;2023-05-11T01:37:30;101673.66;;;11.60;100.00
8575;BME280;4325;42.520;27.448;2023-05-11T01:40:02;101661.44;;;11.51;100.00
8575;BME280;4325;42.520;27.448;2023-05-11T01:42:34;101665.28;;;11.50;100.00
8575;BME280;4325;42.520;27.448;2023-05-11T01:45:03;101666.91;;;11.46;100.00
8575;BME280;4325;42.520;27.448;2023-05-11T01:47:34;101670.00;;;11.55;100.00
8575;BME280;4325;42.520;27.448;2023-05-11T01:50:03;101660.44;;;11.57;100.00
8575;BME280;4325;42.520;27.448;2023-05-11T01:52:32;101662.13;;;11.58;100.00
8575;BME280;4325;42.520;27.448;2023-05-11T01:55:02;101670.91;;;11.60;100.00
8575;BME280;4325;42.520;27.448;2023-05-11T01:57:30;101652.00;;;11.64;100.00
8575;BME280;4325;42.520;27.448;2023-05-11T01:59:57;101653.91;;;11.63;100.00
8575;BME280;4325;42.520;27.448;2023-05-11T02:02:25;101653.91;;;11.63;100.00
8575;BME280;4325;42.520;27.448;2023-05-11T02:04:56;101653.41;;;11.66;100.00
8575;BME280;4325;42.520;27.448;2023-05-11T02:07:24;101660.56;;;11.67;100.00
8575;BME280;4325;42.520;27.448;2023-05-11T02:09:55;101659.31;;;11.75;100.00
8575;BME280;4325;42.520;27.448;2023-05-11T02:12:24;101654.41;;;11.77;100.00
8575;BME280;4325;42.520;27.448;2023-05-11T02:14:52;101652.00;;;11.85;100.00
8575;BME280;4325;42.520;27.448;2023-05-11T02:17:20;101656.16;;;11.88;100.00
8575;BME280;4325;42.520;27.448;2023-05-11T02:19:48;101641.66;;;11.92;100.00
8575;BME280;4325;42.520;27.448;2023-05-11T02:22:18;101647.69;;;11.89;100.00
8575;BME280;4325;42.520;27.448;2023-05-11T02:24:46;101646.53;;;11.85;100.00
8575;BME280;4325;42.520;27.448;2023-05-11T02:27:14;101640.19;;;11.80;100.00
8575;BME280;4325;42.520;27.448;2023-05-11T02:29:41;101644.44;;;11.71;100.00
8575;BME280;4325;42.520;27.448;2023-05-11T02:32:12;101641.88;;;11.64;100.00
8575;BME280;4325;42.520;27.448;2023-05-11T02:34:42;101652.47;;;11.56;100.00
8575;BME280;4325;42.520;27.448;2023-05-11T02:37:12;101641.13;;;11.47;100.00
8575;BME280;4325;42.520;27.448;2023-05-11T02:39:45;101646.16;;;11.34;100.00
8575;BME280;4325;42.520;27.448;2023-05-11T02:42:17;101642.44;;;11.23;100.00
8575;BME280;4325;42.520;27.448;2023-05-11T02:44:54;101647.38;;;11.21;100.00
8575;BME280;4325;42.520;27.448;2023-05-11T02:47:22;101643.78;;;11.20;100.00
8575;BME280;4325;42.520;27.448;2023-05-11T02:49:54;101654.47;;;11.22;100.00
8575;BME280;4325;42.520;27.448;2023-05-11T02:52:24;101647.94;;;11.23;100.00
8575;BME280;4325;42.520;27.448;2023-05-11T02:54:54;101655.19;;;11.34;100.00
8575;BME280;4325;42.520;27.448;2023-05-11T02:57:23;101645.06;;;11.35;100.00
8575;BME280;4325;42.520;27.448;2023-05-11T02:59:50;101650.88;;;11.38;100.00
8575;BME280;4325;42.520;27.448;2023-05-11T03:02:17;101651.72;;;11.39;100.00
8575;BME280;4325;42.520;27.448;2023-05-11T03:04:44;101642.38;;;11.40;100.00
8575;BME280;4325;42.520;27.448;2023-05-11T03:07:11;101653.34;;;11.40;100.00
8575;BME280;4325;42.520;27.448;2023-05-11T03:09:38;101654.19;;;11.40;100.00
8575;BME280;4325;42.520;27.448;2023-05-11T03:12:07;101654.31;;;11.50;100.00
8575;BME280;4325;42.520;27.448;2023-05-11T03:14:34;101650.47;;;11.51;100.00
8575;BME280;4325;42.520;27.448;2023-05-11T03:17:02;101649.47;;;11.57;100.00
8575;BME280;4325;42.520;27.448;2023-05-11T03:19:30;101650.47;;;11.68;100.00
8575;BME280;4325;42.520;27.448;2023-05-11T03:21:58;101660.72;;;11.77;100.00
8575;BME280;4325;42.520;27.448;2023-05-11T03:24:26;101658.53;;;11.79;100.00
8575;BME280;4325;42.520;27.448;2023-05-11T03:26:54;101661.34;;;11.84;100.00
8575;BME280;4325;42.520;27.448;2023-05-11T03:29:24;101663.63;;;11.92;100.00
8575;BME280;4325;42.520;27.448;2023-05-11T03:31:51;101658.78;;;12.00;100.00
8575;BME280;4325;42.520;27.448;2023-05-11T03:34:18;101659.19;;;12.13;100.00
8575;BME280;4325;42.520;27.448;2023-05-11T03:36:47;101665.13;;;12.32;100.00
8575;BME280;4325;42.520;27.448;2023-05-11T03:39:15;101654.25;;;12.47;100.00
8575;BME280;4325;42.520;27.448;2023-05-11T03:41:43;101661.53;;;12.58;100.00
8575;BME280;4325;42.520;27.448;2023-05-11T03:44:12;101672.28;;;12.65;100.00
8575;BME280;4325;42.520;27.448;2023-05-11T03:46:43;101673.16;;;12.70;100.00
8575;BME280;4325;42.520;27.448;2023-05-11T03:49:13;101669.34;;;12.76;100.00
8575;BME280;4325;42.520;27.448;2023-05-11T03:51:41;101669.41;;;12.86;100.00
8575;BME280;4325;42.520;27.448;2023-05-11T03:54:08;101668.94;;;12.94;100.00
8575;BME280;4325;42.520;27.448;2023-05-11T03:56:35;101662.91;;;13.02;100.00
8575;BME280;4325;42.520;27.448;2023-05-11T03:59:03;101667.63;;;13.02;100.00
8575;BME280;4325;42.520;27.448;2023-05-11T04:01:31;101674.47;;;12.99;100.00
8575;BME280;4325;42.520;27.448;2023-05-11T04:03:59;101671.22;;;13.07;100.00
8575;BME280;4325;42.520;27.448;2023-05-11T04:06:26;101675.72;;;13.18;100.00
8575;BME280;4325;42.520;27.448;2023-05-11T04:08:53;101670.88;;;13.41;100.00
8575;BME280;4325;42.520;27.448;2023-05-11T04:11:20;101682.81;;;13.61;100.00
8575;BME280;4325;42.520;27.448;2023-05-11T04:13:47;101677.13;;;13.88;100.00
8575;BME280;4325;42.520;27.448;2023-05-11T04:16:14;101666.19;;;14.18;100.00
8575;BME280;4325;42.520;27.448;2023-05-11T04:18:41;101681.69;;;14.49;100.00
8575;BME280;4325;42.520;27.448;2023-05-11T04:21:09;101686.09;;;14.71;100.00
8575;BME280;4325;42.520;27.448;2023-05-11T04:23:49;101682.19;;;14.92;99.03
8575;BME280;4325;42.520;27.448;2023-05-11T04:26:42;101686.84;;;15.11;98.13
8575;BME280;4325;42.520;27.448;2023-05-11T04:29:26;101675.53;;;15.28;95.11
8575;BME280;4325;42.520;27.448;2023-05-11T04:31:57;101677.16;;;15.39;95.12
8575;BME280;4325;42.520;27.448;2023-05-11T04:34:36;101675.47;;;15.53;94.08
8575;BME280;4325;42.520;27.448;2023-05-11T04:37:16;101685.06;;;15.71;93.28
8575;BME280;4325;42.520;27.448;2023-05-11T04:39:58;101691.31;;;15.92;91.64
8575;BME280;4325;42.520;27.448;2023-05-11T04:42:29;101691.38;;;15.81;91.60
8575;BME280;4325;42.520;27.448;2023-05-11T04:44:56;101701.31;;;15.77;91.97
8575;BME280;4325;42.520;27.448;2023-05-11T04:47:23;101697.19;;;15.75;92.08
8575;BME280;4325;42.520;27.448;2023-05-11T04:49:59;101697.66;;;15.92;92.11
8575;BME280;4325;42.520;27.448;2023-05-11T04:52:27;101692.31;;;16.16;91.40
8575;BME280;4325;42.520;27.448;2023-05-11T04:54:54;101701.59;;;16.30;89.72
8575;BME280;4325;42.520;27.448;2023-05-11T04:57:21;101693.25;;;16.40;88.85
8575;BME280;4325;42.520;27.448;2023-05-11T04:59:48;101702.63;;;16.39;88.79
8575;BME280;4325;42.520;27.448;2023-05-11T05:02:15;101697.56;;;16.51;88.56
8575;BME280;4325;42.520;27.448;2023-05-11T05:04:41;101707.97;;;16.69;86.56
8575;BME280;4325;42.520;27.448;2023-05-11T05:07:08;101717.38;;;16.68;85.44
8575;BME280;4325;42.520;27.448;2023-05-11T05:09:37;101717.94;;;16.65;85.33
8575;BME280;4325;42.520;27.448;2023-05-11T05:12:04;101715.03;;;16.52;86.42
8575;BME280;4325;42.520;27.448;2023-05-11T05:14:31;101711.31;;;16.66;85.49
8575;BME280;4325;42.520;27.448;2023-05-11T05:16:58;101719.53;;;16.76;84.97
8575;BME280;4325;42.520;27.448;2023-05-11T05:19:25;101723.31;;;16.85;84.83
8575;BME280;4325;42.520;27.448;2023-05-11T05:21:52;101718.69;;;17.09;84.44
8575;BME280;4325;42.520;27.448;2023-05-11T05:24:19;101725.47;;;17.22;83.37
8575;BME280;4325;42.520;27.448;2023-05-11T05:26:47;101727.66;;;17.25;81.46
8575;BME280;4325;42.520;27.448;2023-05-11T05:29:14;101722.25;;;17.39;81.03
8575;BME280;4325;42.520;27.448;2023-05-11T05:31:41;101725.56;;;17.12;79.17
8575;BME280;4325;42.520;27.448;2023-05-11T05:34:08;101725.31;;;16.80;80.10
8575;BME280;4325;42.520;27.448;2023-05-11T05:36:35;101720.00;;;16.88;80.88
8575;BME280;4325;42.520;27.448;2023-05-11T05:39:02;101725.41;;;17.03;79.63
8575;BME280;4325;42.520;27.448;2023-05-11T05:41:33;101731.47;;;17.05;79.08
8575;BME280;4325;42.520;27.448;2023-05-11T05:44:02;101730.72;;;17.24;78.09
8575;BME280;4325;42.520;27.448;2023-05-11T05:46:29;101733.13;;;17.01;76.94
8575;BME280;4325;42.520;27.448;2023-05-11T05:48:55;101730.41;;;16.96;76.10
8575;BME280;4325;42.520;27.448;2023-05-11T05:51:22;101735.72;;;16.93;74.02
8575;BME280;4325;42.520;27.448;2023-05-11T05:53:49;101729.91;;;16.89;73.25
8575;BME280;4325;42.520;27.448;2023-05-11T05:56:16;101726.06;;;16.90;71.65
8575;BME280;4325;42.520;27.448;2023-05-11T05:58:43;101725.97;;;17.00;73.37
8575;BME280;4325;42.520;27.448;2023-05-11T06:01:11;101740.06;;;16.99;72.94
8575;BME280;4325;42.520;27.448;2023-05-11T06:03:38;101743.63;;;17.04;73.98
8575;BME280;4325;42.520;27.448;2023-05-11T06:06:05;101749.06;;;17.14;74.70
8575;BME280;4325;42.520;27.448;2023-05-11T06:08:32;101748.47;;;17.23;74.82
8575;BME280;4325;42.520;27.448;2023-05-11T06:10:59;101747.06;;;17.25;74.91
8575;BME280;4325;42.520;27.448;2023-05-11T06:13:26;101766.16;;;17.22;76.62
8575;BME280;4325;42.520;27.448;2023-05-11T06:15:53;101764.75;;;17.24;73.09
8575;BME280;4325;42.520;27.448;2023-05-11T06:18:21;101773.53;;;17.02;74.86
8575;BME280;4325;42.520;27.448;2023-05-11T06:20:48;101757.09;;;16.82;75.80
8575;BME280;4325;42.520;27.448;2023-05-11T06:23:15;101762.88;;;16.86;76.45
8575;BME280;4325;42.520;27.448;2023-05-11T06:25:42;101764.22;;;16.93;77.40
8575;BME280;4325;42.520;27.448;2023-05-11T06:28:09;101762.31;;;16.89;75.75
8575;BME280;4325;42.520;27.448;2023-05-11T06:30:36;101758.25;;;16.76;76.69
8575;BME280;4325;42.520;27.448;2023-05-11T06:33:03;101757.16;;;16.72;77.74
8575;BME280;4325;42.520;27.448;2023-05-11T06:35:31;101763.59;;;16.96;76.48
8575;BME280;4325;42.520;27.448;2023-05-11T06:37:58;101757.16;;;17.40;74.61
8575;BME280;4325;42.520;27.448;2023-05-11T06:40:25;101764.16;;;17.61;70.95
8575;BME280;4325;42.520;27.448;2023-05-11T06:42:52;101766.47;;;17.49;67.03
8575;BME280;4325;42.520;27.448;2023-05-11T06:45:18;101766.97;;;17.51;66.10
8575;BME280;4325;42.520;27.448;2023-05-11T06:47:46;101766.06;;;17.60;67.15
8575;BME280;4325;42.520;27.448;2023-05-11T06:50:12;101756.59;;;17.90;66.33
8575;BME280;4325;42.520;27.448;2023-05-11T06:52:41;101759.19;;;18.42;62.65
8575;BME280;4325;42.520;27.448;2023-05-11T06:55:11;101765.56;;;18.99;58.96
8575;BME280;4325;42.520;27.448;2023-05-11T06:57:38;101764.97;;;19.02;54.80
8575;BME280;4325;42.520;27.448;2023-05-11T07:00:06;101765.84;;;18.47;53.83
8575;BME280;4325;42.520;27.448;2023-05-11T07:02:33;101764.66;;;18.10;56.14
8575;BME280;4325;42.520;27.448;2023-05-11T07:05:00;101774.28;;;17.94;58.09
8575;BME280;4325;42.520;27.448;2023-05-11T07:07:27;101771.16;;;17.77;60.30
8575;BME280;4325;42.520;27.448;2023-05-11T07:09:55;101773.97;;;17.72;60.36
8575;BME280;4325;42.520;27.448;2023-05-11T07:12:22;101770.78;;;17.60;59.77
8575;BME280;4325;42.520;27.448;2023-05-11T07:14:49;101770.25;;;17.58;61.37
8575;BME280;4325;42.520;27.448;2023-05-11T07:17:16;101779.69;;;17.57;61.77
8575;BME280;4325;42.520;27.448;2023-05-11T07:19:43;101780.72;;;17.66;61.87
8575;BME280;4325;42.520;27.448;2023-05-11T07:22:10;101766.22;;;17.74;60.92
8575;BME280;4325;42.520;27.448;2023-05-11T07:24:36;101771.22;;;17.72;59.39
8575;BME280;4325;42.520;27.448;2023-05-11T07:27:05;101773.41;;;17.75;59.93
8575;BME280;4325;42.520;27.448;2023-05-11T07:29:32;101782.28;;;17.72;58.77
8575;BME280;4325;42.520;27.448;2023-05-11T07:31:58;101768.03;;;17.84;59.55
8575;BME280;4325;42.520;27.448;2023-05-11T07:34:25;101771.09;;;17.82;60.35
8575;BME280;4325;42.520;27.448;2023-05-11T07:36:52;101769.00;;;17.74;61.14
8575;BME280;4325;42.520;27.448;2023-05-11T07:39:19;101779.03;;;17.65;62.65
8575;BME280;4325;42.520;27.448;2023-05-11T07:41:46;101776.88;;;17.62;64.33
8575;BME280;4325;42.520;27.448;2023-05-11T07:44:14;101775.59;;;17.78;67.33
8575;BME280;4325;42.520;27.448;2023-05-11T07:46:41;101785.09;;;17.67;66.17
8575;BME280;4325;42.520;27.448;2023-05-11T07:49:08;101786.88;;;17.58;66.78
8575;BME280;4325;42.520;27.448;2023-05-11T07:51:35;101791.16;;;17.74;67.95
8575;BME280;4325;42.520;27.448;2023-05-11T07:54:03;101778.28;;;18.07;65.79
8575;BME280;4325;42.520;27.448;2023-05-11T07:56:30;101780.94;;;18.35;64.26
8575;BME280;4325;42.520;27.448;2023-05-11T07:58:56;101783.78;;;18.54;62.00
8575;BME280;4325;42.520;27.448;2023-05-11T08:01:25;101781.59;;;18.70;59.72
8575;BME280;4325;42.520;27.448;2023-05-11T08:03:52;101777.19;;;19.01;58.96
8575;BME280;4325;42.520;27.448;2023-05-11T08:06:18;101785.28;;;19.16;55.97
8575;BME280;4325;42.520;27.448;2023-05-11T08:08:47;101804.66;;;19.67;55.92
8575;BME280;4325;42.520;27.448;2023-05-11T08:11:14;101789.25;;;20.29;53.52
8575;BME280;4325;42.520;27.448;2023-05-11T08:13:40;101806.63;;;21.20;52.20
8575;BME280;4325;42.520;27.448;2023-05-11T08:16:07;101794.03;;;22.14;49.31
8575;BME280;4325;42.520;27.448;2023-05-11T08:18:36;101786.59;;;22.92;47.10
8575;BME280;4325;42.520;27.448;2023-05-11T08:21:03;101778.34;;;23.38;45.16
8575;BME280;4325;42.520;27.448;2023-05-11T08:23:30;101794.81;;;22.97;44.83
8575;BME280;4325;42.520;27.448;2023-05-11T08:25:57;101791.84;;;22.93;44.80
8575;BME280;4325;42.520;27.448;2023-05-11T08:28:23;101800.84;;;23.50;43.55
8575;BME280;4325;42.520;27.448;2023-05-11T08:30:54;101799.72;;;24.98;40.25
8575;BME280;4325;42.520;27.448;2023-05-11T08:33:21;101804.09;;;25.40;39.30
8575;BME280;4325;42.520;27.448;2023-05-11T08:35:50;101795.09;;;25.79;37.00
8575;BME280;4325;42.520;27.448;2023-05-11T08:38:17;101799.44;;;27.57;34.81
8575;BME280;4325;42.520;27.448;2023-05-11T08:40:44;101806.63;;;27.14;33.61
8575;BME280;4325;42.520;27.448;2023-05-11T08:43:13;101797.69;;;26.45;34.55
8575;BME280;4325;42.520;27.448;2023-05-11T08:45:41;101796.56;;;26.85;34.55
8575;BME280;4325;42.520;27.448;2023-05-11T08:48:13;101789.09;;;28.23;33.01
8575;BME280;4325;42.520;27.448;2023-05-11T08:50:43;101792.22;;;27.43;33.75
8575;BME280;4325;42.520;27.448;2023-05-11T08:53:11;101795.91;;;27.32;34.60
8575;BME280;4325;42.520;27.448;2023-05-11T08:55:39;101789.16;;;27.80;32.18
8575;BME280;4325;42.520;27.448;2023-05-11T08:58:07;101792.09;;;28.65;31.23
8575;BME280;4325;42.520;27.448;2023-05-11T09:00:35;101797.25;;;30.27;29.38
8575;BME280;4325;42.520;27.448;2023-05-11T09:03:03;101786.16;;;32.61;27.13
8575;BME280;4325;42.520;27.448;2023-05-11T09:05:31;101785.75;;;35.45;24.50
8575;BME280;4325;42.520;27.448;2023-05-11T09:07:59;101788.09;;;37.24;22.47
8575;BME280;4325;42.520;27.448;2023-05-11T09:10:29;101785.94;;;37.62;20.90
8575;BME280;4325;42.520;27.448;2023-05-11T09:12:56;101786.63;;;35.97;22.33
8575;BME280;4325;42.520;27.448;2023-05-11T09:15:23;101788.16;;;34.67;23.60
8575;BME280;4325;42.520;27.448;2023-05-11T09:17:50;101785.91;;;35.21;23.13
8575;BME280;4325;42.520;27.448;2023-05-11T09:20:24;101777.22;;;34.37;23.33
8575;BME280;4325;42.520;27.448;2023-05-11T09:22:53;101777.81;;;32.97;25.48
8575;BME280;4325;42.520;27.448;2023-05-11T09:25:21;101787.72;;;31.98;26.71
8575;BME280;4325;42.520;27.448;2023-05-11T09:27:49;101774.34;;;30.32;28.42
8575;BME280;4325;42.520;27.448;2023-05-11T09:30:18;101782.69;;;29.15;30.28
8575;BME280;4325;42.520;27.448;2023-05-11T09:32:46;101787.72;;;27.70;31.75
8575;BME280;4325;42.520;27.448;2023-05-11T09:35:22;101786.31;;;25.93;35.10
8575;BME280;4325;42.520;27.448;2023-05-11T09:38:07;101767.72;;;24.07;38.89
8575;BME280;4325;42.520;27.448;2023-05-11T09:40:35;101784.78;;;22.62;42.10
8575;BME280;4325;42.520;27.448;2023-05-11T09:43:15;101782.34;;;21.73;44.74
8575;BME280;4325;42.520;27.448;2023-05-11T09:45:43;101778.69;;;21.33;46.20
8575;BME280;4325;42.520;27.448;2023-05-11T09:48:23;101785.94;;;20.40;47.62
8575;BME280;4325;42.520;27.448;2023-05-11T09:50:57;101786.88;;;19.82;49.04
8575;BME280;4325;42.520;27.448;2023-05-11T09:53:36;101771.13;;;21.56;46.34
8575;BME280;4325;42.520;27.448;2023-05-11T09:56:03;101768.34;;;24.83;38.98
8575;BME280;4325;42.520;27.448;2023-05-11T09:58:46;101781.56;;;27.65;34.87
8575;BME280;4325;42.520;27.448;2023-05-11T10:01:13;101767.88;;;29.82;30.48
8575;BME280;4325;42.520;27.448;2023-05-11T10:03:47;101771.59;;;32.63;27.64
8575;BME280;4325;42.520;27.448;2023-05-11T10:06:14;101772.78;;;34.22;24.81
8575;BME280;4325;42.520;27.448;2023-05-11T10:08:42;101771.47;;;33.28;25.08
8575;BME280;4325;42.520;27.448;2023-05-11T10:11:09;101767.50;;;34.00;24.33
8575;BME280;4325;42.520;27.448;2023-05-11T10:13:36;101775.34;;;35.17;22.76
8575;BME280;4325;42.520;27.448;2023-05-11T10:16:07;101778.53;;;35.34;22.36
8575;BME280;4325;42.520;27.448;2023-05-11T10:18:35;101770.91;;;36.64;21.58
8575;BME280;4325;42.520;27.448;2023-05-11T10:21:04;101770.81;;;35.86;21.41
8575;BME280;4325;42.520;27.448;2023-05-11T10:23:31;101771.97;;;35.95;21.54
8575;BME280;4325;42.520;27.448;2023-05-11T10:25:59;101787.22;;;35.74;21.72
8575;BME280;4325;42.520;27.448;2023-05-11T10:28:26;101767.16;;;35.27;22.20
8575;BME280;4325;42.520;27.448;2023-05-11T10:30:53;101780.38;;;34.78;22.13
8575;BME280;4325;42.520;27.448;2023-05-11T10:33:23;101772.78;;;34.01;22.81
8575;BME280;4325;42.520;27.448;2023-05-11T10:35:50;101778.53;;;35.30;21.88
8575;BME280;4325;42.520;27.448;2023-05-11T10:38:18;101766.66;;;33.57;22.94
8575;BME280;4325;42.520;27.448;2023-05-11T10:40:47;101765.47;;;34.25;23.15
8575;BME280;4325;42.520;27.448;2023-05-11T10:43:38;101771.59;;;35.35;21.96
8575;BME280;4325;42.520;27.448;2023-05-11T10:46:22;101770.72;;;34.40;22.40
8575;BME280;4325;42.520;27.448;2023-05-11T10:49:09;101750.78;;;33.24;23.40
8575;BME280;4325;42.520;27.448;2023-05-11T10:51:58;101768.63;;;29.79;26.81
8575;BME280;4325;42.520;27.448;2023-05-11T10:54:37;101761.84;;;31.22;26.50
8575;BME280;4325;42.520;27.448;2023-05-11T10:57:30;101762.59;;;34.39;23.48
8575;BME280;4325;42.520;27.448;2023-05-11T11:03:09;101763.03;;;38.12;19.57
8575;BME280;4325;42.520;27.448;2023-05-11T11:05:38;101773.47;;;35.59;21.26
8575;BME280;4325;42.520;27.448;2023-05-11T11:08:08;101766.97;;;34.82;22.40
8575;BME280;4325;42.520;27.448;2023-05-11T11:10:36;101771.47;;;34.73;22.36
8575;BME280;4325;42.520;27.448;2023-05-11T11:13:04;101760.06;;;33.07;23.77
8575;BME280;4325;42.520;27.448;2023-05-11T11:16:09;101765.28;;;32.29;24.54
8575;BME280;4325;42.520;27.448;2023-05-11T11:18:36;101751.50;;;31.40;25.83
8575;BME280;4325;42.520;27.448;2023-05-11T11:21:04;101766.34;;;31.67;25.86
8575;BME280;4325;42.520;27.448;2023-05-11T11:23:42;101764.97;;;33.24;24.83
8575;BME280;4325;42.520;27.448;2023-05-11T11:26:10;101760.19;;;33.92;23.45
8575;BME280;4325;42.520;27.448;2023-05-11T11:29:08;101747.69;;;32.71;24.31
8575;BME280;4325;42.520;27.448;2023-05-11T11:31:36;101752.91;;;34.05;23.69
8575;BME280;4325;42.520;27.448;2023-05-11T11:37:08;101759.94;;;36.21;21.39
8575;BME280;4325;42.520;27.448;2023-05-11T11:39:46;101749.09;;;35.54;21.75
8575;BME280;4325;42.520;27.448;2023-05-11T11:42:15;101754.25;;;35.11;22.31
8575;BME280;4325;42.520;27.448;2023-05-11T11:44:43;101747.16;;;33.41;23.65
8575;BME280;4325;42.520;27.448;2023-05-11T11:47:11;101732.56;;;33.39;23.92
8575;BME280;4325;42.520;27.448;2023-05-11T11:49:38;101738.66;;;33.94;23.00
8575;BME280;4325;42.520;27.448;2023-05-11T11:52:11;101728.56;;;31.96;24.46
8575;BME280;4325;42.520;27.448;2023-05-11T11:54:38;101731.06;;;32.01;25.62
8575;BME280;4325;42.520;27.448;2023-05-11T12:00:09;101734.88;;;31.75;25.51
8575;BME280;4325;42.520;27.448;2023-05-11T12:02:39;101726.78;;;33.04;24.78
8575;BME280;4325;42.520;27.448;2023-05-11T12:05:09;101724.34;;;33.06;24.10
8575;BME280;4325;42.520;27.448;2023-05-11T12:07:41;101722.84;;;33.89;23.69
8575;BME280;4325;42.520;27.448;2023-05-11T12:10:08;101714.91;;;35.51;21.84
8575;BME280;4325;42.520;27.448;2023-05-11T12:12:37;101710.63;;;34.03;22.57
8575;BME280;4325;42.520;27.448;2023-05-11T12:15:05;101697.66;;;34.02;23.03
8575;BME280;4325;42.520;27.448;2023-05-11T12:17:32;101699.84;;;34.88;22.30
8575;BME280;4325;42.520;27.448;2023-05-11T12:20:14;101692.53;;;34.84;21.74
8575;BME280;4325;42.520;27.448;2023-05-11T12:22:43;101694.69;;;34.51;22.41
8575;BME280;4325;42.520;27.448;2023-05-11T12:25:11;101691.50;;;34.39;22.95
8575;BME280;4325;42.520;27.448;2023-05-11T12:27:47;101697.63;;;33.21;23.94
8575;BME280;4325;42.520;27.448;2023-05-11T12:30:19;101694.44;;;33.68;23.65
8575;BME280;4325;42.520;27.448;2023-05-11T12:32:46;101693.63;;;33.64;22.67
8575;BME280;4325;42.520;27.448;2023-05-11T12:35:13;101699.13;;;34.67;22.21
8575;BME280;4325;42.520;27.448;2023-05-11T12:37:41;101694.91;;;34.96;21.68
8575;BME280;4325;42.520;27.448;2023-05-11T12:40:11;101693.75;;;35.52;21.23
8575;BME280;4325;42.520;27.448;2023-05-11T12:42:48;101678.91;;;35.23;22.00
8575;BME280;4325;42.520;27.448;2023-05-11T12:45:16;101680.53;;;34.37;22.61
8575;BME280;4325;42.520;27.448;2023-05-11T12:47:44;101675.59;;;34.59;23.07
8575;BME280;4325;42.520;27.448;2023-05-11T12:50:11;101678.03;;;34.61;22.25
8575;BME280;4325;42.520;27.448;2023-05-11T12:52:38;101676.41;;;34.63;22.54
8575;BME280;4325;42.520;27.448;2023-05-11T12:55:05;101675.09;;;34.78;22.10
8575;BME280;4325;42.520;27.448;2023-05-11T12:57:35;101677.81;;;35.06;21.83
8575;BME280;4325;42.520;27.448;2023-05-11T13:00:07;101685.38;;;34.51;22.28
8575;BME280;4325;42.520;27.448;2023-05-11T13:02:42;101671.50;;;34.67;22.95
8575;BME280;4325;42.520;27.448;2023-05-11T13:05:11;101674.56;;;35.63;21.88
8575;BME280;4325;42.520;27.448;2023-05-11T13:07:38;101670.50;;;35.02;21.75
8575;BME280;4325;42.520;27.448;2023-05-11T13:10:07;101664.41;;;33.85;22.75
8575;BME280;4325;42.520;27.448;2023-05-11T13:12:46;101669.69;;;33.62;23.36
8575;BME280;4325;42.520;27.448;2023-05-11T13:15:13;101669.28;;;33.84;23.40
8575;BME280;4325;42.520;27.448;2023-05-11T13:17:41;101655.81;;;32.97;24.18
8575;BME280;4325;42.520;27.448;2023-05-11T13:20:16;101657.53;;;32.22;24.81